Bookmark and Share
Track history (hours):
 

Yuho Maru No.3

Last reported at 2014-Apr-23 18:33 UTC. Time now 2014-Apr-23 19:19 UTC.
Position N 35°36' E 140°06'.

Length 65 m; draft 4.2 m.

Type: Tanker. MMSI: 431000336.

NotesDate/timePositionNaut miles runAvg speedWind from/ knotsBaromVisibWave heightAir tempDewpointWater temp
2014-Apr-23 18:33N 35°36' E 140°06'0 0.0
2014-Apr-23 17:33N 35°36' E 140°06'0 0.0
2014-Apr-23 16:33N 35°36' E 140°06'0 0.0
2014-Apr-23 15:33N 35°36' E 140°06'0 0.0
2014-Apr-23 14:33N 35°36' E 140°06'0 0.0
2014-Apr-23 13:34N 35°36' E 140°06'0 0.0
2014-Apr-23 12:33N 35°36' E 140°06'0 0.0
2014-Apr-23 11:33N 35°36' E 140°06'0 0.0
2014-Apr-23 10:33N 35°36' E 140°06'0 0.0
2014-Apr-23 09:33N 35°36' E 140°06'0 0.0
2014-Apr-23 08:33N 35°36' E 140°06'0 0.0
2014-Apr-23 07:33N 35°36' E 140°06'0 0.0
2014-Apr-23 06:33N 35°36' E 140°06'0 0.0
2014-Apr-23 05:33N 35°36' E 140°06'1 0.7
2014-Apr-23 04:33N 35°35' E 140°06'8 7.8
2014-Apr-23 03:34N 35°29' E 140°01'0 0.4
2014-Apr-23 02:33N 35°29' E 140°01'4 3.7
2014-Apr-23 01:34N 35°32' E 140°03'0 0.1
2014-Apr-23 00:34N 35°32' E 140°04'0 0.0
2014-Apr-22 23:33N 35°32' E 140°04'2 1.7
2014-Apr-22 22:33N 35°32' E 140°02'0 0.0
2014-Apr-22 21:33N 35°32' E 140°02'0 0.0
2014-Apr-22 20:34N 35°32' E 140°02'0 0.0
2014-Apr-22 19:34N 35°32' E 140°02'0 0.0
2014-Apr-22 18:34N 35°32' E 140°02'0 0.0
2014-Apr-22 17:33N 35°32' E 140°02'0 0.0
2014-Apr-22 16:33N 35°32' E 140°02'0 0.0
2014-Apr-22 15:34N 35°32' E 140°02'0 0.0
2014-Apr-22 14:34N 35°32' E 140°02'0 0.0
2014-Apr-22 13:33N 35°32' E 140°02'0 0.0
2014-Apr-22 12:34N 35°32' E 140°01'0 0.0
2014-Apr-22 11:34N 35°32' E 140°02'0 0.0
2014-Apr-22 10:33N 35°32' E 140°02'0 0.1
2014-Apr-22 09:34N 35°32' E 140°01'0 0.1
2014-Apr-22 08:33N 35°32' E 140°01'1212.5
2014-Apr-22 07:33N 35°31' E 139°46'1 1.1
2014-Apr-22 06:33N 35°32' E 139°46'0 0.0
2014-Apr-22 05:33N 35°32' E 139°46'0 0.0
2014-Apr-22 04:33N 35°32' E 139°46'1 0.9
2014-Apr-22 03:33N 35°31' E 139°46'0 0.0
2014-Apr-22 02:33N 35°31' E 139°46'0 0.0
2014-Apr-22 01:33N 35°31' E 139°46'0 0.0
2014-Apr-22 00:33N 35°31' E 139°46'0 0.0
2014-Apr-21 23:34N 35°31' E 139°46'0 0.0
2014-Apr-21 22:33N 35°31' E 139°46'8 8.5
2014-Apr-21 21:34N 35°33' E 139°57'9 8.6
2014-Apr-21 20:33N 35°36' E 140°06'0 0.0
2014-Apr-21 19:34N 35°36' E 140°06'0 0.0
2014-Apr-21 18:33N 35°36' E 140°06'0 0.0
2014-Apr-21 17:33N 35°36' E 140°06'0 0.0
2014-Apr-21 16:34N 35°36' E 140°06'0 0.0
2014-Apr-21 15:33N 35°36' E 140°06'0 0.0
2014-Apr-21 14:34N 35°36' E 140°06'0 0.0
2014-Apr-21 13:33N 35°36' E 140°06'0 0.0
2014-Apr-21 12:33N 35°36' E 140°06'0 0.0
2014-Apr-21 11:33N 35°36' E 140°06'0 0.0
2014-Apr-21 10:34N 35°36' E 140°06'0 0.0
2014-Apr-21 09:33N 35°36' E 140°06'0 0.0
2014-Apr-21 08:33N 35°36' E 140°06'0 0.0
2014-Apr-21 07:33N 35°36' E 140°06'0 0.0
2014-Apr-21 06:33N 35°36' E 140°06'0 0.0
2014-Apr-21 05:33N 35°36' E 140°06'0 0.0
2014-Apr-21 04:33N 35°36' E 140°06'5 5.4
2014-Apr-21 03:34N 35°33' E 140°01'1212.2
2014-Apr-21 02:34N 35°28' E 139°47'8 8.0
2014-Apr-21 01:33N 35°25' E 139°38'0 0.0
2014-Apr-21 00:33N 35°25' E 139°38'0 0.0
2014-Apr-20 23:33N 35°25' E 139°38'5 4.9
2014-Apr-20 22:34N 35°22' E 139°43'0 0.0
2014-Apr-20 21:33N 35°22' E 139°43'0 0.0
2014-Apr-20 20:33N 35°22' E 139°43'0 0.0
2014-Apr-20 19:33N 35°22' E 139°43'0 0.0
2014-Apr-20 18:33N 35°22' E 139°43'6 6.5
2014-Apr-20 17:34N 35°16' E 139°46'1211.6
2014-Apr-20 16:33N 35°04' E 139°45'1211.2
2014-Apr-20 15:31N 34°53' E 139°47'1210.8
2014-Apr-20 14:22N 34°55' E 140°01'911.5
2014-Apr-20 13:33N 35°00' E 140°11'2211.0
2014-Apr-20 11:32N 35°15' E 140°31'41 9.7
2014-Apr-20 07:21N 35°54' E 140°47'5 5.8
2014-Apr-20 06:27N 35°55' E 140°41'0 0.1
2014-Apr-20 05:33N 35°55' E 140°41'0 0.0
2014-Apr-20 04:28N 35°55' E 140°41'0 0.0
2014-Apr-20 03:32N 35°55' E 140°41'0 0.0
2014-Apr-20 02:33N 35°55' E 140°41'0 0.0
2014-Apr-20 01:33N 35°55' E 140°41'0 0.0
2014-Apr-20 00:33N 35°55' E 140°41'0 0.0
2014-Apr-19 23:33N 35°55' E 140°41'2 0.8
2014-Apr-19 20:31N 35°57' E 140°42'31 7.7
2014-Apr-19 16:30N 35°26' E 140°42'13 9.6
2014-Apr-19 15:06N 35°15' E 140°32'21 8.3
2014-Apr-19 12:32N 35°01' E 140°13'9 9.1
2014-Apr-19 11:30N 34°56' E 140°03'10 9.4
2014-Apr-19 10:24N 34°51' E 139°52'8 9.0
2014-Apr-19 09:31N 34°56' E 139°45'1010.8
2014-Apr-19 08:33N 35°06' E 139°45'1111.4
2014-Apr-19 07:33N 35°18' E 139°44'10 9.6
2014-Apr-19 06:33N 35°27' E 139°47'1111.3
2014-Apr-19 05:34N 35°29' E 140°01'0 0.2
2014-Apr-19 04:34N 35°29' E 140°01'0 0.0
2014-Apr-19 03:33N 35°29' E 140°01'0 0.1
2014-Apr-19 02:33N 35°29' E 140°01'1 0.9
2014-Apr-19 01:33N 35°28' E 140°00'0 0.0
2014-Apr-19 00:33N 35°28' E 140°00'0 0.2
2014-Apr-18 23:33N 35°28' E 139°60'9 9.2
2014-Apr-18 22:33N 35°36' E 140°06'0 0.1
2014-Apr-18 21:33N 35°36' E 140°06'0 0.0
2014-Apr-18 20:34N 35°36' E 140°06'0 0.0
2014-Apr-18 19:34N 35°36' E 140°06'0 0.0
2014-Apr-18 18:33N 35°36' E 140°06'0 0.0
2014-Apr-18 17:33N 35°36' E 140°06'0 0.0
2014-Apr-18 16:34N 35°36' E 140°06'0 0.0
2014-Apr-18 15:33N 35°36' E 140°06'0 0.0
2014-Apr-18 14:34N 35°36' E 140°06'0 0.0
2014-Apr-18 13:33N 35°36' E 140°06'0 0.0
2014-Apr-18 12:33N 35°36' E 140°06'0 0.0
2014-Apr-18 11:33N 35°36' E 140°06'0 0.0
2014-Apr-18 10:33N 35°36' E 140°06'0 0.0
2014-Apr-18 09:33N 35°36' E 140°06'0 0.0
2014-Apr-18 08:33N 35°36' E 140°06'0 0.0
2014-Apr-18 07:33N 35°36' E 140°06'0 0.0
2014-Apr-18 06:33N 35°36' E 140°06'1 0.6
2014-Apr-18 05:34N 35°36' E 140°06'9 9.3
2014-Apr-18 04:33N 35°30' E 139°57'9 9.3
2014-Apr-18 03:33N 35°27' E 139°46'7 7.1
2014-Apr-18 02:33N 35°22' E 139°41'0 0.0
2014-Apr-18 01:33N 35°22' E 139°41'1 0.8
2014-Apr-18 00:33N 35°22' E 139°41'0 0.0
2014-Apr-17 23:33N 35°22' E 139°41'0 0.1
2014-Apr-17 22:33N 35°22' E 139°41'1 0.7
2014-Apr-17 21:33N 35°22' E 139°40'0 0.0
2014-Apr-17 20:34N 35°22' E 139°40'0 0.1
2014-Apr-17 19:34N 35°22' E 139°40'0 0.0
2014-Apr-17 18:33N 35°22' E 139°40'0 0.0
2014-Apr-17 17:33N 35°22' E 139°40'0 0.0
2014-Apr-17 16:33N 35°22' E 139°40'0 0.1
2014-Apr-17 15:33N 35°22' E 139°40'0 0.1
2014-Apr-17 14:33N 35°22' E 139°40'0 0.0
2014-Apr-17 13:33N 35°22' E 139°40'0 0.0
2014-Apr-17 12:33N 35°22' E 139°40'0 0.0
2014-Apr-17 11:34N 35°22' E 139°40'0 0.0
2014-Apr-17 10:33N 35°22' E 139°40'6 5.9
2014-Apr-17 09:33N 35°28' E 139°42'5 4.6
2014-Apr-17 08:34N 35°32' E 139°46'0 0.0
2014-Apr-17 07:33N 35°32' E 139°46'0 0.0
2014-Apr-17 06:34N 35°32' E 139°46'0 0.0
2014-Apr-17 05:33N 35°32' E 139°46'0 0.0
2014-Apr-17 04:34N 35°32' E 139°46'4 3.5
2014-Apr-17 03:33N 35°29' E 139°49'3 3.3
2014-Apr-17 02:33N 35°27' E 139°46'6 5.7
2014-Apr-17 01:33N 35°22' E 139°41'0 0.0
2014-Apr-17 00:33N 35°22' E 139°41'0 0.0
2014-Apr-16 23:34N 35°22' E 139°41'0 0.0
2014-Apr-16 22:33N 35°22' E 139°41'1 0.9
2014-Apr-16 21:33N 35°23' E 139°40'0 0.0
2014-Apr-16 20:33N 35°23' E 139°40'0 0.0
2014-Apr-16 19:33N 35°23' E 139°40'0 0.0
2014-Apr-16 18:33N 35°23' E 139°40'0 0.0
2014-Apr-16 17:33N 35°23' E 139°40'0 0.0
2014-Apr-16 16:33N 35°23' E 139°40'0 0.1
2014-Apr-16 15:33N 35°23' E 139°40'0 0.0
2014-Apr-16 14:33N 35°23' E 139°40'0 0.0
2014-Apr-16 13:33N 35°23' E 139°40'0 0.0
2014-Apr-16 12:34N 35°23' E 139°40'0 0.0
2014-Apr-16 11:33N 35°23' E 139°40'0 0.0
2014-Apr-16 10:33N 35°23' E 139°40'0 0.1
2014-Apr-16 09:33N 35°23' E 139°40'0 0.0
2014-Apr-16 08:34N 35°23' E 139°40'0 0.0
2014-Apr-16 07:33N 35°23' E 139°40'0 0.0
2014-Apr-16 06:33N 35°23' E 139°40'0 0.0
2014-Apr-16 05:33N 35°23' E 139°40'0 0.1
2014-Apr-16 04:33N 35°23' E 139°40'8 7.8
2014-Apr-16 03:33N 35°28' E 139°47'4 3.7
2014-Apr-16 02:34N 35°32' E 139°46'0 0.0
2014-Apr-16 01:33N 35°32' E 139°46'0 0.0
2014-Apr-16 00:33N 35°32' E 139°46'0 0.0
2014-Apr-15 23:32N 35°32' E 139°46'0 0.0
2014-Apr-15 22:33N 35°32' E 139°46'1 1.1
2014-Apr-15 21:34N 35°31' E 139°46'1212.2
2014-Apr-15 20:33N 35°34' E 140°01'5 4.9
2014-Apr-15 19:33N 35°36' E 140°06'0 0.0
2014-Apr-15 18:34N 35°36' E 140°06'0 0.0
2014-Apr-15 17:33N 35°36' E 140°06'0 0.0
2014-Apr-15 16:33N 35°36' E 140°06'0 0.0
2014-Apr-15 15:34N 35°36' E 140°06'0 0.0
2014-Apr-15 14:33N 35°36' E 140°06'0 0.0
2014-Apr-15 12:34N 35°36' E 140°06'0 0.0
2014-Apr-15 11:33N 35°36' E 140°06'0 0.0
2014-Apr-15 10:34N 35°36' E 140°06'0 0.0
2014-Apr-15 09:34N 35°36' E 140°06'0 0.0
2014-Apr-15 08:34N 35°36' E 140°06'0 0.0
2014-Apr-15 07:34N 35°36' E 140°06'0 0.0
2014-Apr-15 06:33N 35°36' E 140°06'0 0.0
2014-Apr-15 05:33N 35°36' E 140°06'0 0.0
2014-Apr-15 03:34N 35°36' E 140°06'0 0.0
2014-Apr-15 02:34N 35°36' E 140°06'0 0.0
2014-Apr-15 01:34N 35°36' E 140°06'0 0.0
2014-Apr-15 00:34N 35°36' E 140°06'0 0.0
2014-Apr-14 23:34N 35°36' E 140°06'9 8.9
2014-Apr-14 22:34N 35°30' E 139°58'3 2.6
2014-Apr-14 21:34N 35°29' E 139°55'0 0.0
2014-Apr-14 20:34N 35°29' E 139°55'0 0.0
2014-Apr-14 19:34N 35°29' E 139°55'0 0.0
2014-Apr-14 18:34N 35°29' E 139°55'0 0.0
2014-Apr-14 17:34N 35°29' E 139°55'0 0.1
2014-Apr-14 16:33N 35°29' E 139°55'3 3.4
2014-Apr-14 15:34N 35°28' E 139°51'1211.5
2014-Apr-14 14:33N 35°18' E 139°45'1211.5
2014-Apr-14 13:34N 35°06' E 139°46'23 7.5
2014-Apr-14 10:33N 35°00' E 140°12'62 4.4
2014-Apr-13 20:24N 35°57' E 140°42'0 0.0
2014-Apr-13 19:32N 35°57' E 140°42'  

Dump ship's entire track history

sailing weather and tide predictions

Yuho Maru No.3 — JD2491 — position and weather